Sand Spring Valley, Nevada Weather observations

Data are for 10 minute period ending at time listed.
 Day   Time   Solar   Ave.   Ave.  Ave.  Vector  Max.   Baro.   Total    
  of    of     Rad.   Air    Rel.  Wind   Wind   Wind  Press.  Precip.   
Year   Day            Temp.  Hum.  Speed  Dir.   Gust                    
2016   (PST)  Kw/m2    F      %     mph   deg.    mph    mb.     in.     
-------------------------------------------------------------------------
 148    9:00   0.00   65.7    31    1.1   106     2.8   851.6    0.00 
 148    9:10   0.00   67.2    28    1.1   163     5.0   851.5    0.00 
 148    9:20   0.00   67.7    28    2.7   151     5.6   851.5    0.00 
 148    9:30   0.00   67.4    29    2.3   142     5.3   851.5    0.00 
 148    9:40   0.00   68.2    28    1.7   107     6.1   851.5    0.00 
 148    9:50   0.00   68.7    25    1.7    69     5.0   851.5    0.00 
 148   10:00   0.00   68.7    30    3.7   104     6.9   851.4    0.00 
 148   10:10   0.00   67.9    26    4.2   146     7.6   851.3    0.00 
 148   10:20   0.00   68.4    26    3.2   106     5.6   851.2    0.00 
 148   10:30   0.00   68.2    26    3.2    86     6.4   851.1    0.00 
 148   10:40   0.00   68.7    24    4.0   114     8.8   851.1    0.00 
 148   10:50   0.00   70.0    20    5.2   330    12.8   851.0    0.00 
 148   11:00   0.00   70.7    22    4.0   347     9.3   850.8    0.00 
 148   11:10   0.00   70.9    19    2.2   322     5.9   850.8    0.00 
 148   11:20   0.00   71.2    19    3.2   238     7.2   850.7    0.00 
 148   11:30   0.00   70.4    24    4.6    90     8.3   850.5    0.00 
 148   11:40   0.00   69.5    27    4.6   108     7.5   850.4    0.00 
 148   11:50   0.00   69.3    28    5.4    96    10.0   850.3    0.00 
 148   12:00   0.00   69.9    22    3.1   355     9.6   850.3    0.00 
 148   12:10   0.00   72.6    18    3.5   245    10.5   850.1    0.00 
 148   12:20   0.00   72.4    18    4.4   272    10.9   850.0    0.00 
 148   12:30   0.00   72.1    18    2.8   273     6.4   849.8    0.00 
 148   12:40   0.00   72.8    18    3.8   257    10.4   849.7    0.00 
 148   12:50   0.00   73.6    18    6.4   243    12.6   849.5    0.00 
 148   13:00   0.00   73.2    17    7.4   341    15.6   849.3    0.00 
 148   13:10   0.00   72.1    22    3.8    95     8.4   849.2    0.00 
 148   13:20   0.00   72.6    21    3.3    96     6.9   849.1    0.00 
 148   13:30   0.00   73.5    18    7.0   196    13.9   849.0    0.00 
 148   13:40   0.00   73.3    17    3.3   248    10.3   849.0    0.00 
 148   13:50   0.00   71.9    18    4.8   279    13.2   848.9    0.00 
 148   14:00   0.00   73.1    17    6.3   270    13.6   848.8    0.00 
 148   14:10   0.00   73.2    15    3.2   316     8.3   848.7    0.00 
 148   14:20   0.00   74.8    15    3.4   286     9.2   848.6    0.00 
 148   14:30   0.00   74.5    16    7.9   227    15.1   848.5    0.00 
 148   14:40   0.00   75.5    15    5.7   225    11.6   848.4    0.00 
 148   14:50   0.00   76.8    14    6.0   201    14.1   848.3    0.00 
 148   15:00   0.00   74.0    14    6.2   270    14.3   848.3    0.00 
 148   15:10   0.00   74.9    14    2.6   276     5.6   848.2    0.00 
 148   15:20   0.00   75.5    16    7.1   277    13.9   848.1    0.00 
 148   15:30   0.00   75.5    15    8.5   277    15.1   848.0    0.00 
 148   15:40   0.00   75.5    14    4.1   279    18.9   848.0    0.00 
 148   15:50   0.00   75.2    15    8.4   262    14.4   847.9    0.00 
 148   16:00   0.00   76.6    14    2.4   213     8.8   847.8    0.00 
 148   16:10   0.00   76.0    14    7.3   235    13.6   847.7    0.00 
 148   16:20   0.00   76.0    14    6.2   235    12.1   847.7    0.00 
 148   16:30   0.00   75.2    15    7.5   269    12.5   847.6    0.00 
 148   16:40   0.00   74.9    15    8.8   263    17.1   847.6    0.00 
 148   16:50   0.00   74.3    15   10.0   245    14.9   847.5    0.00 
 148   17:00   0.00   74.4    15    6.4   223    12.8   847.4    0.00 
 148   17:10   0.00   74.3    16    4.4   238     9.3   847.4    0.00 
 148   17:20   0.00   73.9    16    7.2   257    11.1   847.4    0.00 
 148   17:30   0.00   74.0    16    6.5   236    10.4   847.4    0.00 
 148   17:40   0.00   73.8    17    6.6   258    12.7   847.4    0.00 
 148   17:50   0.00   72.8    18    7.7   248    12.9   847.4    0.00 
 148   18:00   0.00   73.6    17    3.1   222     6.3   847.5    0.00 
 148   18:10   0.00   72.2    23    4.3   225     5.9   847.5    0.00 
 148   18:20   0.00   70.1    22    6.9   268    11.1   847.5    0.00 
 148   18:30   0.00   69.0    20    8.5   263    13.0   847.6    0.00 
 148   18:40   0.00   67.7    21    7.5   257     9.9   847.8    0.00 
 148   18:50   0.00   66.4    22    7.9   254    11.4   847.9    0.00 
 148   19:00   0.00   64.3    25    6.4   257     7.7   847.9    0.00 
 148   19:10   0.00   62.9    26    6.9   251     8.2   848.0    0.00 
 148   19:20   0.00   61.8    27    6.3   251     7.2   848.0    0.00 
 148   19:30   0.00   60.2    30    6.1   253     7.1   848.0    0.00 
 148   19:40   0.00   58.6    33    5.6   250     6.3   848.0    0.00 
 148   19:50   0.00   55.7    36    5.6   233     8.0   848.0    0.00 
 148   20:00   0.00   56.1    34    6.0   228     6.9   848.0    0.00 
 148   20:10   0.00   55.6    33    6.1   226     7.9   848.0    0.00 
 148   20:20   0.00   57.7    29    6.8   227    10.3   848.1    0.00 
 148   20:30   0.00   54.3    37    6.4   220     7.3   848.2    0.00 
 148   20:40   0.00   52.9    42    6.5   213     7.7   848.2    0.00 
 148   20:50   0.00   52.0    43    6.0   221     6.9   848.1    0.00 
 148   21:00   0.00   52.0    44    5.8   220     7.0   848.2    0.00 
 148   21:10   0.00   51.9    42    6.0   223     7.1   848.2    0.00 
 148   21:20   0.00   51.7    42    6.6   218     8.6   848.3    0.00 
 148   21:30   0.00   52.3    40    6.7   220     8.5   848.3    0.00 
 148   21:40   0.00   53.4    36    6.5   226     7.9   848.3    0.00 
 148   21:50   0.00   54.2    32    4.1   289     6.4   848.4    0.00 
 148   22:00   0.00   57.8    26    5.7   245    11.8   848.5    0.00 
 148   22:10   0.00   56.8    28    7.3   240     9.4   848.5    0.00 
 148   22:20   0.00   56.3    31    6.1   257     8.0   848.4    0.00 
 148   22:30   0.00   54.9    33    5.6   254     7.4   848.4    0.00 
 148   22:40   0.00   52.8    38    5.3   264     7.0   848.4    0.00 
 148   22:50   0.00   51.8    42    6.2   264     7.7   848.4    0.00 
 148   23:00   0.00   52.1    44    3.0   285     8.0   848.4    0.00 
 148   23:10   0.00   52.2    43    5.6   275     7.4   848.4    0.00 
 148   23:20   0.00   50.3    45    3.9   236     7.0   848.5    0.00 
 148   23:30   0.00   50.5    42    6.3   246    11.2   848.5    0.00 
 148   23:40   0.00   54.1    33    9.5   256    11.5   848.5    0.00 
 148   23:50   0.00   54.7    32    7.0   245     9.6   848.6    0.00 
 149    0:00   0.00   53.3    34    6.6   232     7.8   848.7    0.00 
 149    0:10   0.00   53.5    34    7.4   226     9.3   848.8    0.00 
 149    0:20   0.00   53.3    35    7.6   224     9.3   848.7    0.00 
 149    0:30   0.00   52.9    36    8.1   217     9.3   848.6    0.00 
 149    0:40   0.00   52.3    39    6.8   212     9.4   848.7    0.00 
 149    0:50   0.00   51.9    39    5.1   265     7.4   848.8    0.00 
 149    1:00   0.00   55.2    35    4.3   292     5.9   848.9    0.00 
 149    1:10   0.00   54.6    34    6.1   256     8.6   849.0    0.00 
 149    1:20   0.00   52.1    38    4.6   238     7.7   848.9    0.00 
 149    1:30   0.00   48.5    47    2.8   163     4.4   848.9    0.00 
 149    1:40   0.00   50.0    45    1.3     4     7.9   848.9    0.00 
 149    1:50   0.00   49.0    55    0.5   332     2.0   848.9    0.00 
 149    2:00   0.00   47.7    50    1.9   324     5.0   848.9    0.00 
 149    2:10   0.00   48.4    53    0.4   323     1.7   848.9    0.00 
 149    2:20   0.00   45.8    56    4.5   278     5.3   848.9    0.00 
 149    2:30   0.00   45.1    55    5.7   286     7.1   848.9    0.00 
 149    2:40   0.00   46.7    48    5.5   281     6.9   848.9    0.00 
 149    2:50   0.00   46.7    55    5.1   238     7.2   849.0    0.00 
 149    3:00   0.00   45.5    57    3.3   242     5.4   849.1    0.00 
 149    3:10   0.00   44.8    54    0.5    18     2.7   849.2    0.00 
 149    3:20   0.00   47.9    45    1.8   276     5.3   849.3    0.00 
 149    3:30   0.00   47.6    49    4.6   247     7.1   849.3    0.00 
 149    3:40   0.00   44.0    58    3.7   194     5.6   849.3    0.00 
 149    3:50   0.00   41.9    67    1.1   197     3.1   849.3    0.00 
 149    4:00   0.00   40.7    71    1.3   197     2.6   849.6    0.00 
 149    4:10   0.00   41.2    61    0.8   197     2.1   849.6    0.00 
 149    4:20   0.00   43.1    55    1.3   197     2.0   849.7    0.00 
 149    4:30   0.00   41.3    62    1.3   197     1.9   849.8    0.00 
 149    4:40   0.00   41.7    61    2.9   206     4.8   849.9    0.00 
 149    4:50   0.00   41.3    69    3.7   227     5.1   850.0    0.00 
 149    5:00   0.00   41.7    69    3.5   238     4.3   850.1    0.00 
 149    5:10   0.00   43.3    65    4.9   252     6.1   850.1    0.00 
 149    5:20   0.00   45.4    60    5.2   239     6.5   850.2    0.00 
 149    5:30   0.00   46.4    59    4.3   250     6.3   850.2    0.00 
 149    5:40   0.00   47.6    58    3.7   253     4.9   850.2    0.00 
 149    5:50   0.00   49.8    57    1.9   244     3.8   850.2    0.00 
 149    6:00   0.00   52.4    59    0.3   241     1.5   850.3    0.00 
 149    6:10   0.00   53.6    59    0.4   241     2.3   850.3    0.00 
 149    6:20   0.00   53.8    63    0.9    65     2.3   850.4    0.00 
 149    6:30   0.00   54.0    58    2.1    57     3.4   850.5    0.00 
 149    6:40   0.00   53.9    53    3.1    47     5.0   850.5    0.00 
 149    6:50   0.00   55.1    42    2.6    39     3.8   850.6    0.00 
 149    7:00   0.00   56.3    34    3.3    20     4.7   850.7    0.00 
 149    7:10   0.00   57.5    37    3.0    41     4.7   850.8    0.00 
 149    7:20   0.00   58.4    35    2.7    49     4.0   850.9    0.00 
 149    7:30   0.00   59.7    34    2.5    44     3.8   851.0    0.00 
 149    7:40   0.00   60.7    30    2.4    47     4.7   851.0    0.00 
 149    7:50   0.00   62.1    31    1.9    56     3.1   851.1    0.00 
 149    8:00   0.00   63.1    33    1.9   104     3.9   851.1    0.00 
 149    8:10   0.00   64.0    31    1.7   105     3.4   851.2    0.00 
 149    8:20   0.00   65.3    30    1.1    92     4.2   851.2    0.00 
 149    8:30   0.00   66.2    28    1.6    80     3.9   851.2    0.00 
 149    8:40   0.00   67.2    28    1.8   126     4.2   851.2    0.00 
 149    8:50   0.00   68.4    24    2.2   322     5.8   851.2    0.00 

Return to Sand Spring Valley graphs page.


Western Regional Climate Center,wrcc@dri.edu